Time;durP1;ratioP1;P1;durP2;ratioP2;P2;SDS_P1;SDS_P2;PMS_P1;PMS_P2;Temp;Humidity;BMP_temperature;BMP_pressure;BME280_temperature;BME280_humidity;BME280_pressure;Samples;Min_cycle;Max_cycle;Signal;HPM_P1;HPM_P2
2021/11/27 00:01:17;;;;;;;;;;;;;;;5.65;64.18;97944.75;4377326;32;32619;-88
2021/11/27 00:03:45;;;;;;;;;;;;;;;5.36;65.75;97962.81;4393065;32;33886;-89
2021/11/27 00:06:13;;;;;;;;;;;;;;;5.48;65.90;97966.56;4376087;32;32611;-89
2021/11/27 00:08:40;;;;;;;;;;;;;;;5.50;66.01;97966.47;4376323;32;33318;-88
2021/11/27 00:11:08;;;;;;;;;;;;;;;5.60;65.59;97967.69;4403316;32;33928;-89
2021/11/27 00:13:36;;;;;;;;;;;;;;;5.55;64.92;97972.31;4388271;32;33068;-89
2021/11/27 00:16:03;;;;;;;;;;;;;;;5.48;64.94;97974.41;4390247;32;34488;-89
2021/11/27 00:18:31;;;;;;;;;;;;;;;5.57;64.66;97973.09;4390474;32;35508;-89
2021/11/27 00:20:59;;;;;;;;;;;;;;;5.26;65.79;97973.81;4387849;32;33717;-89
2021/11/27 00:23:29;;;;;;;;;;;;;;;5.23;66.06;97976.63;4388721;32;34059;-89
2021/11/27 00:25:57;;;;;;;;;;;;;;;5.50;65.48;97982.19;4389674;32;33497;-89
2021/11/27 00:28:25;;;;;;;;;;;;;;;5.50;65.16;97961.25;4407782;32;34363;-89
2021/11/27 00:30:53;;;;;;;;;;;;;;;5.46;65.62;97964.94;4390551;32;33293;-89
2021/11/27 00:33:21;;;;;;;;;;;;;;;5.76;64.20;97950.25;4377610;32;32700;-89
2021/11/27 00:35:49;;;;;;;;;;;;;;;5.58;64.66;97948.59;4400387;32;33849;-88
2021/11/27 00:38:17;;;;;;;;;;;;;;;5.15;65.86;97966.53;4399882;32;34076;-88
2021/11/27 00:40:45;;;;;;;;;;;;;;;5.14;65.83;97949.16;4389746;32;33868;-90
2021/11/27 00:43:13;;;;;;;;;;;;;;;5.60;63.77;97939.75;4376150;32;33983;-88
2021/11/27 00:45:41;;;;;;;;;;;;;;;5.39;64.49;97936.47;4401297;32;34980;-91
2021/11/27 00:48:10;;;;;;;;;;;;;;;5.20;65.55;97947.97;4376059;32;33154;-91
2021/11/27 00:50:44;;;;;;;;;;;;;;;5.57;63.41;97953.00;4379974;32;32792;-90
2021/11/27 00:53:12;;;;;;;;;;;;;;;5.03;65.32;97956.69;4378243;32;32453;-91
2021/11/27 00:55:40;;;;;;;;;;;;;;;5.43;63.63;97968.56;4386133;32;33483;-90
2021/11/27 00:58:07;;;;;;;;;;;;;;;5.23;65.08;97974.00;4383512;32;33470;-89
2021/11/27 01:00:37;;;;;;;;;;;;;;;5.50;63.75;97971.72;4390563;32;32949;-88
2021/11/27 01:03:06;;;;;;;;;;;;;;;5.31;64.90;97969.19;4376831;32;33074;-87
2021/11/27 01:05:38;;;;;;;;;;;;;;;5.16;66.34;97973.44;4387981;32;34704;-87
2021/11/27 01:08:06;;;;;;;;;;;;;;;5.19;65.42;97972.47;4393525;32;34015;-88
2021/11/27 01:10:36;;;;;;;;;;;;;;;5.14;65.29;97965.69;4392180;32;32473;-88
2021/11/27 01:13:05;;;;;;;;;;;;;;;5.33;64.48;97962.97;4380008;32;32804;-89
2021/11/27 01:15:32;;;;;;;;;;;;;;;5.47;64.20;97962.25;4388341;32;33481;-89
2021/11/27 01:18:01;;;;;;;;;;;;;;;5.21;64.56;97960.13;4393814;32;34045;-90
2021/11/27 01:20:33;;;;;;;;;;;;;;;5.16;64.96;97962.97;4397357;32;33854;-90
2021/11/27 01:23:01;;;;;;;;;;;;;;;5.65;63.13;97970.94;4394947;32;32343;-90
2021/11/27 01:25:29;;;;;;;;;;;;;;;5.36;64.48;97981.16;4414501;32;35009;-90
2021/11/27 01:28:06;;;;;;;;;;;;;;;5.45;64.14;97973.72;4377165;32;33247;-90
2021/11/27 01:30:34;;;;;;;;;;;;;;;5.57;63.92;97984.41;4377927;32;32649;-90
2021/11/27 01:33:01;;;;;;;;;;;;;;;5.39;64.26;97996.66;4391191;32;33305;-90
2021/11/27 01:35:29;;;;;;;;;;;;;;;5.43;64.38;98000.00;4386330;32;33841;-90
2021/11/27 01:37:57;;;;;;;;;;;;;;;5.33;64.59;97986.53;4389761;32;32507;-90
2021/11/27 01:40:25;;;;;;;;;;;;;;;5.63;63.16;97980.63;4400611;32;31902;-89
2021/11/27 01:42:53;;;;;;;;;;;;;;;5.70;63.13;97983.75;4395030;32;33729;-90
2021/11/27 01:45:23;;;;;;;;;;;;;;;5.60;63.40;97983.38;4376704;32;32662;-90
2021/11/27 01:47:52;;;;;;;;;;;;;;;5.55;63.10;97974.94;4373286;32;35412;-90
2021/11/27 01:50:20;;;;;;;;;;;;;;;5.69;62.53;97971.59;4374254;32;31988;-87
2021/11/27 01:52:50;;;;;;;;;;;;;;;5.46;63.55;97971.03;4394501;32;32934;-85
2021/11/27 01:55:17;;;;;;;;;;;;;;;5.66;62.88;97975.22;4395923;32;35016;-85
2021/11/27 01:57:45;;;;;;;;;;;;;;;5.43;63.88;97975.59;4396237;32;34582;-85
2021/11/27 02:00:16;;;;;;;;;;;;;;;5.72;62.78;97968.81;4375351;32;32507;-85
2021/11/27 02:02:43;;;;;;;;;;;;;;;5.82;61.90;97970.00;4412950;32;34219;-91
2021/11/27 02:05:12;;;;;;;;;;;;;;;5.76;62.31;97959.88;4376429;32;33102;-92
2021/11/27 02:07:49;;;;;;;;;;;;;;;5.54;63.06;97968.84;4379568;32;33192;-88
2021/11/27 02:10:17;;;;;;;;;;;;;;;5.62;63.16;97966.69;4376725;32;32952;-89
2021/11/27 02:12:46;;;;;;;;;;;;;;;5.46;64.46;97970.16;4399924;32;33852;-89
2021/11/27 02:15:15;;;;;;;;;;;;;;;5.65;64.04;97970.94;4388728;32;34395;-90
2021/11/27 02:17:43;;;;;;;;;;;;;;;5.55;63.95;97967.91;4389065;32;34156;-89
2021/11/27 02:20:11;;;;;;;;;;;;;;;5.86;62.67;97956.66;4376215;32;32347;-90
2021/11/27 02:22:39;;;;;;;;;;;;;;;5.71;63.52;97962.75;4375596;32;32446;-90
2021/11/27 02:25:09;;;;;;;;;;;;;;;5.69;64.15;97959.34;4388112;32;33182;-90
2021/11/27 02:27:36;;;;;;;;;;;;;;;5.72;64.10;97958.34;4390932;32;34394;-89
2021/11/27 02:30:08;;;;;;;;;;;;;;;5.90;62.98;97963.44;4398469;32;32459;-89
2021/11/27 02:32:37;;;;;;;;;;;;;;;6.03;62.41;97961.03;4378345;32;33992;-88
2021/11/27 02:35:05;;;;;;;;;;;;;;;5.60;64.31;97968.56;4377735;32;33150;-89
2021/11/27 02:37:33;;;;;;;;;;;;;;;5.48;64.32;97973.56;4372192;32;33567;-89
2021/11/27 02:40:02;;;;;;;;;;;;;;;5.36;64.52;97978.53;4385058;32;32200;-89
2021/11/27 02:42:32;;;;;;;;;;;;;;;5.53;64.50;97976.78;4407462;32;33300;-90
2021/11/27 02:45:00;;;;;;;;;;;;;;;5.76;63.85;97984.28;4374445;32;33268;-89
2021/11/27 02:47:27;;;;;;;;;;;;;;;5.80;63.70;97991.06;4389073;32;34404;-90
2021/11/27 02:49:55;;;;;;;;;;;;;;;5.51;64.07;98000.44;4387707;32;31986;-90
2021/11/27 02:52:22;;;;;;;;;;;;;;;5.80;63.27;98000.69;4389962;32;33775;-90
2021/11/27 02:54:50;;;;;;;;;;;;;;;5.54;63.97;98009.91;4388370;32;32924;-89
2021/11/27 02:57:18;;;;;;;;;;;;;;;5.81;63.17;98008.47;4400226;32;34019;-90
2021/11/27 02:59:45;;;;;;;;;;;;;;;5.78;62.46;98013.84;4388090;32;34292;-89
2021/11/27 03:02:13;;;;;;;;;;;;;;;6.02;61.98;98005.63;4386460;32;33831;-89
2021/11/27 03:04:41;;;;;;;;;;;;;;;5.64;64.03;98011.09;4401889;32;34206;-90
2021/11/27 03:07:09;;;;;;;;;;;;;;;5.78;63.24;98003.37;4379413;32;32980;-90
2021/11/27 03:09:36;;;;;;;;;;;;;;;6.06;62.54;97997.53;4373319;32;33208;-91
2021/11/27 03:12:05;;;;;;;;;;;;;;;6.00;63.09;97992.62;4386066;32;33119;-90
2021/11/27 03:14:33;;;;;;;;;;;;;;;5.78;63.87;97995.50;4374934;32;33848;-90
2021/11/27 03:17:02;;;;;;;;;;;;;;;5.83;63.30;97996.09;4378349;32;33188;-90
2021/11/27 03:19:32;;;;;;;;;;;;;;;5.94;63.01;97994.75;4381870;32;33305;-91
2021/11/27 03:22:00;;;;;;;;;;;;;;;6.01;62.92;97994.31;4392211;32;34470;-89
2021/11/27 03:24:29;;;;;;;;;;;;;;;6.03;62.71;98000.34;4403200;32;32764;-89
2021/11/27 03:26:57;;;;;;;;;;;;;;;5.83;63.09;98006.59;4377207;32;33264;-89
2021/11/27 03:29:24;;;;;;;;;;;;;;;5.95;62.28;97999.06;4401179;32;33584;-88
2021/11/27 03:32:01;;;;;;;;;;;;;;;5.89;62.62;97994.97;4392860;32;32981;-87
2021/11/27 03:34:33;;;;;;;;;;;;;;;5.92;62.58;98009.69;4378272;32;34193;-88
2021/11/27 03:37:00;;;;;;;;;;;;;;;5.92;62.78;97999.22;4385492;32;35110;-89
2021/11/27 03:39:29;;;;;;;;;;;;;;;5.76;63.20;98014.88;4401700;32;33566;-88
2021/11/27 03:42:01;;;;;;;;;;;;;;;5.74;63.11;98012.31;4385225;32;32865;-88
2021/11/27 03:44:29;;;;;;;;;;;;;;;5.51;63.36;98025.78;4388464;32;34008;-90
2021/11/27 03:46:59;;;;;;;;;;;;;;;5.58;63.46;98021.91;4380141;32;33086;-90
2021/11/27 03:49:27;;;;;;;;;;;;;;;5.68;62.94;98028.34;4387950;32;32204;-89
2021/11/27 03:51:55;;;;;;;;;;;;;;;5.78;62.55;98032.19;4389302;32;34497;-89
2021/11/27 03:54:23;;;;;;;;;;;;;;;5.57;63.33;98035.94;4410451;32;33484;-91
2021/11/27 03:57:08;;;;;;;;;;;;;;;5.59;63.13;98039.31;4425799;32;33695;-91
2021/11/27 04:00:07;;;;;;;;;;;;;;;5.51;63.37;98033.63;4411159;32;31852;-92
2021/11/27 04:02:49;;;;;;;;;;;;;;;5.79;62.85;98036.50;4385584;32;34051;-91
2021/11/27 04:05:42;;;;;;;;;;;;;;;5.72;63.06;98024.66;4366429;32;32999;-93
2021/11/27 04:08:33;;;;;;;;;;;;;;;5.63;63.03;98019.87;4397411;32;34094;-91
2021/11/27 04:11:30;;;;;;;;;;;;;;;5.77;62.58;98033.09;4349613;32;32049;-90
2021/11/27 04:14:25;;;;;;;;;;;;;;;5.60;62.47;98040.97;4365410;32;32505;-93
2021/11/27 04:17:28;;;;;;;;;;;;;;;5.48;63.10;98036.41;4358886;32;33774;-88
2021/11/27 04:19:56;;;;;;;;;;;;;;;5.50;62.84;98030.16;4385251;32;34292;-88
2021/11/27 04:22:24;;;;;;;;;;;;;;;5.77;62.25;98038.34;4369850;32;33530;-88
2021/11/27 04:24:52;;;;;;;;;;;;;;;5.70;62.14;98046.59;4368074;32;33317;-88
2021/11/27 04:27:20;;;;;;;;;;;;;;;5.72;62.59;98032.50;4366382;32;33834;-87
2021/11/27 04:29:48;;;;;;;;;;;;;;;6.10;61.12;98017.41;4371728;32;33366;-90
2021/11/27 04:32:16;;;;;;;;;;;;;;;5.93;61.62;98032.31;4362668;32;31652;-89
2021/11/27 04:34:45;;;;;;;;;;;;;;;5.64;62.21;98047.75;4344687;32;34171;-89
2021/11/27 04:37:14;;;;;;;;;;;;;;;5.69;62.06;98052.75;4383573;32;33044;-91
2021/11/27 04:40:08;;;;;;;;;;;;;;;5.60;62.10;98052.34;4384102;32;33950;-89
2021/11/27 04:42:52;;;;;;;;;;;;;;;5.59;62.30;98044.53;4381751;32;32353;-90
2021/11/27 04:45:19;;;;;;;;;;;;;;;5.28;63.21;98053.12;4356956;32;33283;-91
2021/11/27 04:47:48;;;;;;;;;;;;;;;5.18;63.17;98057.97;4370949;32;33063;-92
2021/11/27 04:50:17;;;;;;;;;;;;;;;5.35;62.75;98065.78;4351339;32;33283;-92
2021/11/27 04:52:47;;;;;;;;;;;;;;;5.47;62.93;98045.19;4332960;32;32446;-91
2021/11/27 04:55:21;;;;;;;;;;;;;;;5.54;62.55;98041.31;4358583;32;31788;-92
2021/11/27 04:57:52;;;;;;;;;;;;;;;5.62;62.10;98049.63;4347084;32;33175;-92
2021/11/27 05:00:43;;;;;;;;;;;;;;;5.62;61.59;98044.38;4385233;32;33378;-92
2021/11/27 05:03:31;;;;;;;;;;;;;;;5.84;60.54;98039.72;4381274;32;32742;-91
2021/11/27 05:06:19;;;;;;;;;;;;;;;5.53;61.62;98047.47;4388376;32;34305;-92
2021/11/27 05:08:57;;;;;;;;;;;;;;;5.38;61.77;98057.81;4387113;32;32649;-94
2021/11/27 05:11:48;;;;;;;;;;;;;;;5.54;61.26;98059.63;4359302;32;35488;-90
2021/11/27 05:14:17;;;;;;;;;;;;;;;5.35;62.16;98068.41;4371003;32;32797;-91
2021/11/27 05:16:45;;;;;;;;;;;;;;;5.35;62.14;98073.66;4374477;32;32707;-90
2021/11/27 05:19:21;;;;;;;;;;;;;;;5.30;62.35;98078.28;4367563;32;34019;-91
2021/11/27 05:21:49;;;;;;;;;;;;;;;5.14;62.91;98072.13;4361206;32;33186;-91
2021/11/27 05:24:17;;;;;;;;;;;;;;;5.24;63.25;98075.13;4346222;32;31998;-91
2021/11/27 05:26:46;;;;;;;;;;;;;;;5.16;63.51;98083.34;4374425;32;32856;-90
2021/11/27 05:29:16;;;;;;;;;;;;;;;5.38;62.89;98083.97;4381798;32;33284;-91
2021/11/27 05:31:46;;;;;;;;;;;;;;;5.43;62.85;98081.13;4387073;32;33405;-90
2021/11/27 05:34:32;;;;;;;;;;;;;;;5.42;62.58;98068.13;4357219;32;32207;-90
2021/11/27 05:37:02;;;;;;;;;;;;;;;5.50;62.30;98063.34;4376229;32;32521;-91
2021/11/27 05:39:29;;;;;;;;;;;;;;;5.50;62.42;98058.09;4372314;32;34054;-91
2021/11/27 05:41:57;;;;;;;;;;;;;;;5.60;61.38;98069.78;4367769;32;33766;-91
2021/11/27 05:44:25;;;;;;;;;;;;;;;5.21;62.50;98075.25;4356745;32;32675;-91
2021/11/27 05:46:53;;;;;;;;;;;;;;;5.25;62.26;98080.28;4367011;32;32833;-92
2021/11/27 05:49:34;;;;;;;;;;;;;;;5.14;62.44;98075.56;4374748;32;32731;-93
2021/11/27 05:52:26;;;;;;;;;;;;;;;5.35;61.79;98083.28;4374618;32;34454;-90
2021/11/27 05:55:17;;;;;;;;;;;;;;;5.35;61.71;98084.12;4358642;32;32211;-87
2021/11/27 05:57:45;;;;;;;;;;;;;;;5.29;61.66;98089.66;4355898;32;32826;-87
2021/11/27 06:00:13;;;;;;;;;;;;;;;5.31;61.48;98082.56;4379620;32;32882;-89
2021/11/27 06:02:40;;;;;;;;;;;;;;;5.24;61.55;98091.66;4381457;32;33277;-89
2021/11/27 06:05:08;;;;;;;;;;;;;;;5.12;61.96;98102.72;4335641;32;30853;-89
2021/11/27 06:07:35;;;;;;;;;;;;;;;5.06;61.99;98100.41;4374155;32;32179;-89
2021/11/27 06:10:04;;;;;;;;;;;;;;;4.63;63.60;98120.75;4354091;32;34278;-87
2021/11/27 06:12:32;;;;;;;;;;;;;;;4.66;63.61;98125.00;4365858;32;33403;-87
2021/11/27 06:14:59;;;;;;;;;;;;;;;4.77;63.44;98134.03;4369696;32;33767;-90
2021/11/27 06:17:26;;;;;;;;;;;;;;;5.06;62.58;98126.56;4361066;32;33153;-89
2021/11/27 06:19:55;;;;;;;;;;;;;;;4.97;62.80;98134.84;4348584;32;33829;-89
2021/11/27 06:22:22;;;;;;;;;;;;;;;5.01;63.04;98152.09;4379463;32;33737;-88
2021/11/27 06:24:50;;;;;;;;;;;;;;;5.23;62.14;98150.16;4356108;32;32748;-88
2021/11/27 06:27:18;;;;;;;;;;;;;;;4.98;62.84;98150.47;4358262;32;34301;-88
2021/11/27 06:29:45;;;;;;;;;;;;;;;4.70;64.06;98153.56;4365010;32;34727;-88
2021/11/27 06:32:12;;;;;;;;;;;;;;;4.64;64.25;98169.50;4370457;32;33263;-87
2021/11/27 06:34:40;;;;;;;;;;;;;;;4.77;64.17;98168.03;4372530;32;32349;-87
2021/11/27 06:37:08;;;;;;;;;;;;;;;4.86;64.12;98166.75;4375392;32;33426;-88
2021/11/27 06:39:37;;;;;;;;;;;;;;;5.23;62.88;98160.62;4352311;32;32976;-90
2021/11/27 06:42:05;;;;;;;;;;;;;;;5.41;61.86;98164.09;4355043;32;32307;-87
2021/11/27 06:44:34;;;;;;;;;;;;;;;5.32;62.31;98149.72;4372950;32;33767;-88
2021/11/27 06:47:02;;;;;;;;;;;;;;;5.21;62.71;98157.22;4371061;32;33005;-88
2021/11/27 06:49:32;;;;;;;;;;;;;;;5.32;62.15;98156.72;4347860;32;33024;-88
2021/11/27 06:51:59;;;;;;;;;;;;;;;5.18;62.91;98160.00;4371626;32;33285;-90
2021/11/27 06:54:47;;;;;;;;;;;;;;;5.02;63.57;98161.63;4357742;32;33059;-89
2021/11/27 06:57:19;;;;;;;;;;;;;;;5.10;63.50;98156.91;4355582;32;34153;-90
2021/11/27 06:59:50;;;;;;;;;;;;;;;5.54;61.68;98143.41;4354723;32;32788;-89
2021/11/27 07:02:37;;;;;;;;;;;;;;;5.20;62.84;98155.53;4358929;32;33226;-90
2021/11/27 07:06:25;;;;;;;;;;;;;;;5.35;62.69;98149.53;4338034;33;34315;-91
2021/11/27 07:09:07;;;;;;;;;;;;;;;5.39;62.80;98163.34;4336067;33;33735;-87
2021/11/27 07:11:38;;;;;;;;;;;;;;;5.29;63.22;98172.56;4352570;32;34024;-85
2021/11/27 07:14:14;;;;;;;;;;;;;;;5.22;63.61;98169.41;4358150;32;34211;-91
2021/11/27 07:16:49;;;;;;;;;;;;;;;5.40;63.44;98165.88;4338613;33;32113;-92
2021/11/27 07:19:32;;;;;;;;;;;;;;;5.46;63.19;98179.59;4350712;32;33444;-92
2021/11/27 07:22:25;;;;;;;;;;;;;;;5.70;62.56;98177.53;4322600;33;33184;-93
2021/11/27 07:25:16;;;;;;;;;;;;;;;5.78;61.80;98183.22;4328014;33;33258;-94
2021/11/27 07:28:10;;;;;;;;;;;;;;;5.72;62.09;98200.09;4312960;33;32350;-94
2021/11/27 07:30:49;;;;;;;;;;;;;;;6.11;60.82;98180.72;4334171;33;33079;-92
2021/11/27 07:33:44;;;;;;;;;;;;;;;6.25;59.50;98172.97;4320471;33;34729;-93
2021/11/27 07:36:23;;;;;;;;;;;;;;;5.86;61.56;98179.31;4372367;32;33262;-95
2021/11/27 07:39:09;;;;;;;;;;;;;;;5.62;62.81;98193.63;4391159;32;31877;-94
2021/11/27 07:42:01;;;;;;;;;;;;;;;5.79;62.17;98193.66;4336145;33;32774;-90
2021/11/27 07:44:52;;;;;;;;;;;;;;;6.10;61.45;98194.75;4327396;33;33289;-92
2021/11/27 07:47:44;;;;;;;;;;;;;;;5.74;61.82;98185.16;4327742;33;32684;-92
2021/11/27 07:50:37;;;;;;;;;;;;;;;5.65;62.03;98206.59;4354302;32;33182;-92
2021/11/27 07:53:29;;;;;;;;;;;;;;;5.87;61.81;98195.88;4366017;32;32802;-95
2021/11/27 07:56:20;;;;;;;;;;;;;;;6.10;60.80;98186.87;4347584;32;33061;-92
2021/11/27 07:59:11;;;;;;;;;;;;;;;5.96;61.25;98190.22;4348647;32;32507;-94
2021/11/27 08:01:50;;;;;;;;;;;;;;;6.11;60.83;98188.56;4370401;32;32491;-93
2021/11/27 08:04:41;;;;;;;;;;;;;;;5.85;61.63;98185.47;4372751;32;32960;-91
2021/11/27 08:07:20;;;;;;;;;;;;;;;6.28;60.80;98185.94;4353290;32;33159;-95
2021/11/27 08:10:13;;;;;;;;;;;;;;;6.69;59.72;98185.50;4351642;32;33012;-91
2021/11/27 08:12:52;;;;;;;;;;;;;;;6.62;59.42;98192.88;4348250;32;33192;-90
2021/11/27 08:15:43;;;;;;;;;;;;;;;6.45;61.06;98199.94;4407228;32;33262;-91
2021/11/27 08:18:22;;;;;;;;;;;;;;;6.77;60.07;98187.72;4401693;32;34783;-92
2021/11/27 08:21:04;;;;;;;;;;;;;;;6.61;60.27;98200.81;4428282;32;33093;-92
2021/11/27 08:23:59;;;;;;;;;;;;;;;6.97;58.84;98210.25;4385721;32;34191;-91
2021/11/27 08:26:38;;;;;;;;;;;;;;;6.85;60.36;98222.28;4414346;32;33832;-92
2021/11/27 08:29:30;;;;;;;;;;;;;;;7.02;58.19;98221.34;4387515;32;32673;-95
2021/11/27 08:32:12;;;;;;;;;;;;;;;7.21;58.00;98214.16;4349543;32;32553;-94
2021/11/27 08:34:54;;;;;;;;;;;;;;;7.14;58.55;98229.41;4418511;32;31897;-95
2021/11/27 08:41:48;;;;;;;;;;;;;;;7.60;56.97;98205.84;4372098;32;35484;-95
2021/11/27 08:44:18;;;;;;;;;;;;;;;6.91;57.85;98209.66;4355898;32;34037;-91
2021/11/27 08:46:59;;;;;;;;;;;;;;;7.27;57.36;98205.97;4368859;32;31618;-91
2021/11/27 08:49:31;;;;;;;;;;;;;;;7.48;56.78;98196.03;4360014;32;32936;-94
2021/11/27 08:51:59;;;;;;;;;;;;;;;7.53;55.97;98198.38;4376027;32;33265;-93
2021/11/27 08:54:50;;;;;;;;;;;;;;;7.08;60.22;98202.66;4377045;32;32590;-92
2021/11/27 08:57:29;;;;;;;;;;;;;;;7.47;57.97;98199.59;4365309;32;32320;-93
2021/11/27 09:00:21;;;;;;;;;;;;;;;7.76;57.17;98194.44;4395039;32;32825;-91
2021/11/27 09:03:00;;;;;;;;;;;;;;;7.92;55.12;98201.34;4377194;32;34175;-91
2021/11/27 09:05:51;;;;;;;;;;;;;;;7.78;55.92;98196.03;4365649;32;33086;-90
2021/11/27 09:08:31;;;;;;;;;;;;;;;7.98;55.17;98188.81;4391865;32;32227;-92
2021/11/27 09:11:23;;;;;;;;;;;;;;;7.77;55.03;98186.47;4334541;33;33798;-91
2021/11/27 09:14:03;;;;;;;;;;;;;;;7.46;56.89;98187.41;4431254;32;33980;-94
2021/11/27 09:21:30;;;;;;;;;;;;;;;7.11;58.00;98218.22;4392536;32;34281;-88
2021/11/27 09:23:58;;;;;;;;;;;;;;;7.53;57.47;98204.47;4367062;32;33146;-88
2021/11/27 09:26:25;;;;;;;;;;;;;;;7.60;57.11;98210.25;4379389;32;34116;-88
2021/11/27 09:28:53;;;;;;;;;;;;;;;7.74;55.23;98207.69;4366766;32;33357;-88
2021/11/27 09:31:20;;;;;;;;;;;;;;;7.51;56.25;98206.38;4366828;32;32364;-88
2021/11/27 09:33:48;;;;;;;;;;;;;;;7.56;56.76;98204.31;4366501;32;33879;-88
2021/11/27 09:36:19;;;;;;;;;;;;;;;7.60;55.88;98197.13;4395754;32;33061;-88
2021/11/27 09:38:48;;;;;;;;;;;;;;;7.32;55.81;98203.09;4407636;32;33090;-88
2021/11/27 09:41:18;;;;;;;;;;;;;;;7.14;57.95;98215.44;4395525;32;33240;-88
2021/11/27 09:43:47;;;;;;;;;;;;;;;7.51;55.23;98203.75;4395341;32;32778;-88
2021/11/27 09:46:15;;;;;;;;;;;;;;;7.22;57.50;98208.00;4395409;32;33451;-88
2021/11/27 09:48:46;;;;;;;;;;;;;;;7.27;57.00;98215.63;4395359;32;33207;-88
2021/11/27 09:51:13;;;;;;;;;;;;;;;7.46;56.68;98218.06;4407695;32;32834;-88
2021/11/27 09:53:41;;;;;;;;;;;;;;;7.26;57.47;98206.03;4407942;32;33924;-88
2021/11/27 09:56:08;;;;;;;;;;;;;;;7.33;57.09;98197.75;4407754;32;34354;-88
2021/11/27 09:58:37;;;;;;;;;;;;;;;7.54;56.41;98205.31;4395201;32;33669;-88
2021/11/27 10:01:06;;;;;;;;;;;;;;;7.34;56.40;98206.47;4407529;32;33627;-87
2021/11/27 10:03:34;;;;;;;;;;;;;;;7.52;56.47;98217.72;4407794;32;33872;-88
2021/11/27 10:06:05;;;;;;;;;;;;;;;7.82;57.59;98204.59;4395578;32;33374;-88
2021/11/27 10:08:34;;;;;;;;;;;;;;;7.90;56.80;98202.37;4395557;32;34677;-88
2021/11/27 10:11:01;;;;;;;;;;;;;;;7.89;56.10;98193.66;4395674;32;32970;-88
2021/11/27 10:13:30;;;;;;;;;;;;;;;8.04;56.20;98206.84;4404747;32;34728;-88
2021/11/27 10:15:57;;;;;;;;;;;;;;;8.21;53.92;98202.28;4420846;32;33039;-88
2021/11/27 10:18:26;;;;;;;;;;;;;;;7.75;55.15;98211.16;4420765;32;34086;-88
2021/11/27 10:21:16;;;;;;;;;;;;;;;7.43;56.68;98214.66;4420453;32;32325;-88
2021/11/27 10:23:44;;;;;;;;;;;;;;;7.66;55.02;98216.00;4420227;32;33501;-88
2021/11/27 10:26:31;;;;;;;;;;;;;;;7.26;56.12;98212.13;4420144;32;33380;-88
2021/11/27 10:29:19;;;;;;;;;;;;;;;7.75;55.63;98206.75;4420196;32;32867;-89
2021/11/27 10:31:48;;;;;;;;;;;;;;;8.04;56.27;98214.72;4420470;32;32365;-88
2021/11/27 10:34:16;;;;;;;;;;;;;;;8.10;54.68;98193.31;4420097;32;33727;-88
2021/11/27 10:36:50;;;;;;;;;;;;;;;8.46;54.15;98190.31;4419666;32;32764;-88
2021/11/27 10:39:18;;;;;;;;;;;;;;;8.17;55.86;98199.91;4433001;32;34019;-88
2021/11/27 10:41:58;;;;;;;;;;;;;;;8.34;55.05;98189.22;4407259;32;32794;-87
2021/11/27 10:44:27;;;;;;;;;;;;;;;8.32;54.09;98175.31;4419797;32;33750;-88
2021/11/27 10:47:06;;;;;;;;;;;;;;;8.02;54.87;98193.75;4419972;32;34430;-89
2021/11/27 10:49:34;;;;;;;;;;;;;;;8.07;57.12;98199.63;4407087;32;33353;-88
2021/11/27 10:52:10;;;;;;;;;;;;;;;7.82;56.20;98197.56;4419694;32;33316;-88
2021/11/27 10:59:00;;;;;;;;;;;;;;;7.78;54.90;98182.06;4408461;32;35033;-88
2021/11/27 11:01:28;;;;;;;;;;;;;;;7.48;57.06;98205.69;4432288;32;33575;-88
2021/11/27 11:03:58;;;;;;;;;;;;;;;7.79;55.73;98215.31;4419271;32;32732;-88
2021/11/27 11:06:27;;;;;;;;;;;;;;;7.73;56.92;98221.72;4419466;32;33742;-88
2021/11/27 11:08:54;;;;;;;;;;;;;;;7.90;56.61;98205.84;4419542;32;33570;-88
2021/11/27 11:11:25;;;;;;;;;;;;;;;7.98;56.14;98199.31;4419232;32;33609;-88
2021/11/27 11:13:57;;;;;;;;;;;;;;;8.14;57.62;98202.72;4432120;32;32865;-87
2021/11/27 11:16:26;;;;;;;;;;;;;;;8.29;56.49;98196.53;4394423;32;33516;-88
2021/11/27 11:19:12;;;;;;;;;;;;;;;8.79;53.75;98181.28;4394394;32;33414;-88
2021/11/27 11:22:17;;;;;;;;;;;;;;;8.75;53.24;98174.53;4406709;32;33504;-88
2021/11/27 11:24:45;;;;;;;;;;;;;;;8.41;54.07;98185.31;4375153;32;33144;-88
2021/11/27 11:27:29;;;;;;;;;;;;;;;8.62;54.06;98187.59;4388786;32;32668;-88
2021/11/27 11:29:56;;;;;;;;;;;;;;;9.10;53.26;98174.94;4407064;32;34238;-88
2021/11/27 11:32:27;;;;;;;;;;;;;;;8.57;53.66;98177.34;4381945;32;34629;-88
2021/11/27 11:34:55;;;;;;;;;;;;;;;7.98;55.72;98170.41;4394360;32;31995;-88
2021/11/27 11:37:23;;;;;;;;;;;;;;;8.55;54.39;98176.59;4394073;32;34207;-88
2021/11/27 11:39:51;;;;;;;;;;;;;;;8.17;55.66;98178.87;4407234;32;33169;-88
2021/11/27 11:42:21;;;;;;;;;;;;;;;8.54;54.95;98172.25;4396424;32;33478;-87
2021/11/27 11:44:48;;;;;;;;;;;;;;;8.62;53.64;98170.00;4396515;32;33127;-88
2021/11/27 11:47:16;;;;;;;;;;;;;;;8.21;54.77;98175.97;4396371;32;33053;-88
2021/11/27 11:49:44;;;;;;;;;;;;;;;8.46;54.16;98177.16;4396414;32;32953;-88
2021/11/27 11:52:14;;;;;;;;;;;;;;;8.24;54.36;98169.69;4396559;32;33300;-88
2021/11/27 11:54:42;;;;;;;;;;;;;;;8.03;55.09;98181.50;4408832;32;32315;-89
2021/11/27 11:57:10;;;;;;;;;;;;;;;8.18;55.88;98175.31;4396450;32;32921;-89
2021/11/27 11:59:39;;;;;;;;;;;;;;;8.41;53.57;98179.22;4408657;32;33325;-88
2021/11/27 12:02:18;;;;;;;;;;;;;;;8.09;56.12;98181.97;4409249;32;34230;-88
2021/11/27 12:04:58;;;;;;;;;;;;;;;8.40;55.36;98191.53;4409168;32;33543;-88
2021/11/27 12:07:47;;;;;;;;;;;;;;;8.74;53.41;98186.84;4408734;32;33125;-88
2021/11/27 12:10:42;;;;;;;;;;;;;;;8.31;55.25;98180.66;4398086;32;32982;-88
2021/11/27 12:13:09;;;;;;;;;;;;;;;8.36;55.06;98174.25;4403065;32;33240;-88
2021/11/27 12:15:38;;;;;;;;;;;;;;;8.51;54.83;98171.63;4408787;32;32382;-89
2021/11/27 12:18:09;;;;;;;;;;;;;;;8.06;56.30;98163.72;4421163;32;33186;-88
2021/11/27 12:20:40;;;;;;;;;;;;;;;8.14;55.31;98173.81;4434152;32;33970;-87
2021/11/27 12:23:35;;;;;;;;;;;;;;;8.10;55.56;98177.53;4434227;32;33702;-87
2021/11/27 12:30:08;;;;;;;;;;;;;;;7.43;56.94;98177.91;4410425;32;35019;-88
2021/11/27 12:32:37;;;;;;;;;;;;;;;7.67;57.85;98159.03;4421357;32;34307;-88
2021/11/27 12:35:23;;;;;;;;;;;;;;;7.08;59.04;98161.53;4434287;32;32866;-88
2021/11/27 12:37:51;;;;;;;;;;;;;;;7.05;59.88;98161.69;4421637;32;33505;-88
2021/11/27 12:40:50;;;;;;;;;;;;;;;7.66;57.53;98142.44;4421632;32;32762;-88
2021/11/27 12:43:19;;;;;;;;;;;;;;;7.41;58.25;98144.81;4406681;32;34375;-88
2021/11/27 12:45:48;;;;;;;;;;;;;;;7.74;57.97;98128.88;4408729;32;33519;-88
2021/11/27 12:48:34;;;;;;;;;;;;;;;7.88;57.28;98122.78;4421178;32;32805;-87
2021/11/27 12:51:17;;;;;;;;;;;;;;;7.73;57.86;98121.91;4408696;32;32960;-88
2021/11/27 12:54:04;;;;;;;;;;;;;;;7.76;58.14;98131.41;4421125;32;34453;-88
2021/11/27 12:56:51;;;;;;;;;;;;;;;7.75;58.63;98137.59;4421122;32;35164;-88
2021/11/27 12:59:22;;;;;;;;;;;;;;;7.54;59.88;98126.53;4421269;32;33239;-88
2021/11/27 13:01:53;;;;;;;;;;;;;;;7.79;58.83;98134.69;4434055;32;33015;-88
2021/11/27 13:04:22;;;;;;;;;;;;;;;7.70;60.73;98137.84;4408293;32;33059;-88
2021/11/27 13:06:50;;;;;;;;;;;;;;;7.67;60.67;98143.28;4420636;32;33365;-89
2021/11/27 13:09:18;;;;;;;;;;;;;;;7.93;60.22;98150.50;4433928;32;33523;-88
2021/11/27 13:11:50;;;;;;;;;;;;;;;7.48;62.32;98166.28;4422118;32;33872;-89
2021/11/27 13:14:21;;;;;;;;;;;;;;;7.94;62.01;98199.47;4411580;32;34018;-89
2021/11/27 13:16:48;;;;;;;;;;;;;;;7.79;63.14;98179.37;4423897;32;33509;-89
2021/11/27 13:19:29;;;;;;;;;;;;;;;7.95;62.27;98153.03;4411310;32;32398;-88
2021/11/27 13:22:03;;;;;;;;;;;;;;;7.82;62.57;98150.25;4411337;32;32733;-88
2021/11/27 13:24:31;;;;;;;;;;;;;;;8.02;61.90;98161.38;4423667;32;34141;-88
2021/11/27 13:26:58;;;;;;;;;;;;;;;7.99;62.23;98158.94;4436348;32;34060;-89
2021/11/27 13:29:26;;;;;;;;;;;;;;;8.18;61.52;98159.53;4410766;32;32504;-87
2021/11/27 13:31:54;;;;;;;;;;;;;;;8.01;61.75;98151.81;4423040;32;34904;-88
2021/11/27 13:34:23;;;;;;;;;;;;;;;8.20;61.47;98139.25;4410373;32;32599;-87
2021/11/27 13:37:09;;;;;;;;;;;;;;;7.72;62.60;98137.75;4411146;32;32942;-87
2021/11/27 13:39:37;;;;;;;;;;;;;;;8.16;61.16;98133.31;4410452;32;32757;-87
2021/11/27 13:42:19;;;;;;;;;;;;;;;7.87;63.08;98145.56;4410387;32;32599;-87
2021/11/27 13:44:48;;;;;;;;;;;;;;;8.02;62.05;98137.72;4410235;32;32821;-87
2021/11/27 13:47:22;;;;;;;;;;;;;;;7.96;62.52;98121.38;4410238;32;33195;-88
2021/11/27 13:49:50;;;;;;;;;;;;;;;7.90;62.83;98129.62;4422872;32;34267;-87